createdAt,value
2019-04-27T00:04:20.002Z,28.37
2019-04-27T00:10:36.524Z,28.67
2019-04-27T00:16:51.603Z,31.00
2019-04-27T00:23:00.759Z,28.30
2019-04-27T00:29:05.726Z,27.87
2019-04-27T00:35:13.649Z,29.00
2019-04-27T00:41:20.544Z,26.10
2019-04-27T00:47:25.173Z,30.03
2019-04-27T00:53:29.739Z,27.47
2019-04-27T00:59:48.089Z,23.07
2019-04-27T01:05:53.158Z,25.47
2019-04-27T01:11:57.770Z,30.17
2019-04-27T01:18:11.957Z,31.67
2019-04-27T01:24:08.999Z,26.03
2019-04-27T01:30:18.933Z,28.87
2019-04-27T01:36:23.539Z,33.53
2019-04-27T01:42:29.469Z,28.03
2019-04-27T01:48:34.247Z,27.57
2019-04-27T01:54:40.822Z,29.93
2019-04-27T02:00:47.240Z,26.30
2019-04-27T02:06:53.441Z,28.37
2019-04-27T02:12:58.697Z,29.27
2019-04-27T02:19:03.389Z,30.37
2019-04-27T02:25:09.355Z,29.97
2019-04-27T02:31:13.683Z,26.67
2019-04-27T02:37:20.090Z,29.70
2019-04-27T02:43:29.609Z,26.37
2019-04-27T02:49:34.413Z,37.07
2019-04-27T02:55:39.818Z,29.30
2019-04-27T03:01:53.541Z,25.80
2019-04-27T03:07:59.725Z,31.53
2019-04-27T03:14:32.586Z,20.60
2019-04-27T03:20:36.076Z,29.97
2019-04-27T03:26:42.440Z,26.57
2019-04-27T03:32:54.687Z,82.77
2019-04-27T03:38:53.474Z,67.53
2019-04-27T03:45:00.356Z,21.13
2019-04-27T03:51:10.082Z,46.93
2019-04-27T03:57:22.540Z,16.70
2019-04-27T04:03:29.567Z,21.50
2019-04-27T04:09:40.910Z,21.67
2019-04-27T04:15:52.184Z,23.37
2019-04-27T04:21:57.083Z,24.70
2019-04-27T04:28:01.632Z,16.53
2019-04-27T04:34:06.605Z,16.10
2019-04-27T04:40:11.486Z,24.30
2019-04-27T04:46:16.069Z,23.20
2019-04-27T04:52:20.691Z,17.77
2019-04-27T04:58:25.247Z,18.30
2019-04-27T05:04:29.821Z,17.40
2019-04-27T05:10:34.434Z,14.37
2019-04-27T05:16:39.163Z,19.27
2019-04-27T05:22:43.918Z,19.40
2019-04-27T05:28:49.205Z,16.13
2019-04-27T05:34:53.807Z,15.63
2019-04-27T05:40:58.729Z,15.80
2019-04-27T05:47:05.351Z,17.13
2019-04-27T05:53:11.242Z,20.10
2019-04-27T05:59:15.884Z,17.47
2019-04-27T06:05:22.814Z,19.53
2019-04-27T06:11:28.434Z,16.93
2019-04-27T06:17:33.245Z,21.63
2019-04-27T06:23:39.051Z,26.00
2019-04-27T06:29:43.723Z,22.20
2019-04-27T06:35:49.557Z,21.87
2019-04-27T06:41:54.223Z,18.53
2019-04-27T06:47:59.531Z,19.10
2019-04-27T06:54:04.390Z,18.17
2019-04-27T07:00:09.786Z,16.63
2019-04-27T07:06:14.410Z,14.90
2019-04-27T07:12:19.238Z,15.57
2019-04-27T07:18:23.767Z,15.40
2019-04-27T07:24:29.224Z,12.90
2019-04-27T07:30:33.991Z,13.67
2019-04-27T07:36:39.303Z,15.27
2019-04-27T07:42:45.928Z,12.47
2019-04-27T07:48:50.963Z,14.33
2019-04-27T07:54:55.872Z,12.70
2019-04-27T08:01:00.435Z,13.97
2019-04-27T08:07:05.081Z,11.20
2019-04-27T08:13:09.689Z,10.30
2019-04-27T08:19:14.331Z,12.10
2019-04-27T08:25:19.061Z,11.97
2019-04-27T08:31:25.376Z,11.70
2019-04-27T08:37:38.763Z,9.43
2019-04-27T08:43:43.329Z,9.40
2019-04-27T08:49:49.180Z,13.60
2019-04-27T08:55:53.929Z,7.80
2019-04-27T09:01:58.794Z,6.97
2019-04-27T09:08:18.947Z,7.40
2019-04-27T09:14:37.133Z,6.27
2019-04-27T09:20:49.247Z,5.27
2019-04-27T09:26:53.791Z,6.77
2019-04-27T09:32:58.671Z,8.67
2019-04-27T09:39:03.288Z,7.53
2019-04-27T09:45:09.053Z,8.93
2019-04-27T09:51:13.625Z,5.90
2019-04-27T09:57:18.184Z,4.47
2019-04-27T10:03:22.816Z,5.30
2019-04-27T10:09:29.636Z,4.57
2019-04-27T10:15:35.546Z,6.80
2019-04-27T10:21:39.993Z,6.73
2019-04-27T10:27:46.183Z,2.30
2019-04-27T10:33:50.742Z,3.10
2019-04-27T10:39:56.061Z,3.87
2019-04-27T10:46:00.837Z,4.13
2019-04-27T10:52:06.068Z,3.83
2019-04-27T10:58:10.632Z,3.90
2019-04-27T11:04:19.573Z,5.60
2019-04-27T11:10:25.897Z,4.93
2019-04-27T11:16:30.669Z,4.63
2019-04-27T11:22:36.304Z,11.60
2019-04-27T11:28:42.731Z,4.20
2019-04-27T11:35:05.820Z,6.90
2019-04-27T11:41:10.517Z,8.67
2019-04-27T11:47:16.230Z,3.43
2019-04-27T11:53:23.194Z,6.27
2019-04-27T11:59:27.279Z,5.33
2019-04-27T12:05:32.109Z,3.70
2019-04-27T12:11:36.730Z,3.60
2019-04-27T12:17:41.346Z,4.33
2019-04-27T12:23:47.247Z,2.83
2019-04-27T12:30:06.245Z,2.50
2019-04-27T12:36:11.073Z,2.63
2019-04-27T12:42:16.070Z,2.17
2019-04-27T12:48:20.869Z,1.83
2019-04-27T12:54:27.073Z,1.70
2019-04-27T13:00:39.706Z,4.33
2019-04-27T13:06:44.342Z,1.50
2019-04-27T13:12:48.954Z,3.90
2019-04-27T13:18:53.592Z,1.77
2019-04-27T13:24:58.512Z,2.23
2019-04-27T13:31:03.085Z,3.83
2019-04-27T13:37:09.262Z,4.97
2019-04-27T13:43:21.447Z,2.47
2019-04-27T13:49:43.944Z,4.93
2019-04-27T13:55:48.627Z,2.90
2019-04-27T14:01:53.228Z,2.77
2019-04-27T14:07:59.149Z,2.80
2019-04-27T14:14:03.905Z,6.57
2019-04-27T14:20:09.713Z,6.20
2019-04-27T14:26:14.367Z,4.10
2019-04-27T14:32:19.000Z,6.00
2019-04-27T14:38:23.565Z,5.07
2019-04-27T14:44:29.276Z,7.50
2019-04-27T14:50:33.828Z,8.93
2019-04-27T14:56:38.840Z,8.00
2019-04-27T15:02:43.458Z,4.40
2019-04-27T15:08:49.225Z,6.77
2019-04-27T15:14:57.276Z,5.53
2019-04-27T15:21:02.586Z,3.10
2019-04-27T15:27:08.259Z,3.87
2019-04-27T15:33:30.535Z,3.77
2019-04-27T15:39:52.772Z,7.57
2019-04-27T15:45:58.612Z,2.60
2019-04-27T15:52:04.657Z,2.67
2019-04-27T15:58:09.787Z,7.13
2019-04-27T16:04:14.559Z,7.80
2019-04-27T16:10:20.108Z,4.03
2019-04-27T16:16:29.215Z,3.30
2019-04-27T16:22:31.601Z,4.10
2019-04-27T16:28:36.148Z,12.73
2019-04-27T16:34:41.319Z,6.63
2019-04-27T16:40:46.007Z,4.30
2019-04-27T16:46:50.642Z,9.07
2019-04-27T16:59:20.724Z,8.50
2019-04-27T17:05:08.503Z,10.23
2019-04-27T17:11:13.866Z,4.97
2019-04-27T17:12:40.067Z,5.50
2019-04-27T17:17:20.135Z,4.10
2019-04-27T17:23:31.199Z,6.97
2019-04-27T17:29:35.791Z,5.30
2019-04-27T17:35:42.675Z,3.87
2019-04-27T17:41:50.576Z,5.10
2019-04-27T17:47:53.001Z,4.47
2019-04-27T17:53:58.599Z,5.60
2019-04-27T18:00:05.324Z,4.53
2019-04-27T18:06:09.939Z,7.00
2019-04-27T18:12:15.798Z,6.50
2019-04-27T18:18:22.806Z,7.43
2019-04-27T18:24:30.282Z,9.67
2019-04-27T18:30:52.927Z,7.37
2019-04-27T18:36:57.470Z,6.37
2019-04-27T18:43:05.942Z,6.77
2019-04-27T18:49:22.618Z,7.00
2019-04-27T18:55:28.977Z,4.43
2019-04-27T19:01:33.626Z,5.20
2019-04-27T19:07:38.353Z,8.03
2019-04-27T19:13:42.863Z,9.83
2019-04-27T19:19:47.440Z,6.40
2019-04-27T19:26:08.643Z,9.13
2019-04-27T19:32:13.188Z,6.83
2019-04-27T19:38:18.572Z,10.13
2019-04-27T19:44:23.456Z,10.70
2019-04-27T19:50:28.627Z,20.43
2019-04-27T19:56:33.233Z,13.77
2019-04-27T20:02:38.250Z,16.63
2019-04-27T20:08:48.957Z,8.83
2019-04-27T20:14:56.635Z,10.93
2019-04-27T20:21:01.184Z,9.00
2019-04-27T20:27:05.728Z,15.63
2019-04-27T20:33:11.033Z,16.00
2019-04-27T20:39:15.781Z,12.43
2019-04-27T20:45:20.388Z,10.47
2019-04-27T20:51:31.020Z,16.70
2019-04-27T20:57:35.781Z,10.37
2019-04-27T21:03:41.935Z,8.40
2019-04-27T21:09:46.470Z,8.17
2019-04-27T21:15:51.064Z,15.57
2019-04-27T21:21:55.640Z,7.10
2019-04-27T21:28:14.923Z,11.27
2019-04-27T21:34:06.458Z,10.50
2019-04-27T21:40:13.658Z,9.40
2019-04-27T21:46:18.218Z,9.03
2019-04-27T21:52:27.350Z,8.67
2019-04-27T21:58:33.380Z,10.60
2019-04-27T22:04:38.694Z,7.80
2019-04-27T22:10:43.235Z,8.70
2019-04-27T22:16:47.771Z,9.50
2019-04-27T22:23:09.230Z,11.93
2019-04-27T22:29:13.780Z,15.10
2019-04-27T22:35:18.471Z,11.83
2019-04-27T22:41:24.723Z,9.83
2019-04-27T22:47:29.353Z,9.20
2019-04-27T22:53:33.969Z,10.40
2019-04-27T22:59:42.941Z,7.63
2019-04-27T23:05:47.614Z,5.77
2019-04-27T23:11:52.235Z,10.13
2019-04-27T23:17:57.481Z,5.43
2019-04-27T23:24:02.048Z,7.50
2019-04-27T23:30:08.564Z,12.90
2019-04-27T23:36:13.117Z,7.30
2019-04-27T23:42:17.746Z,9.60
2019-04-27T23:48:22.990Z,6.20
2019-04-27T23:54:28.564Z,6.93
